Time;durP1;ratioP1;P1;durP2;ratioP2;P2;SDS_P1;SDS_P2;PMS_P1;PMS_P2;Temp;Humidity;BMP_temperature;BMP_pressure;BME280_temperature;BME280_humidity;BME280_pressure;Samples;Min_cycle;Max_cycle;Signal;HPM_P1;HPM_P2
2024/02/11 00:00:43;;;;;;;10.45;3.08;;;;;;;;;;6281226;28;20048;-76
2024/02/11 00:03:46;;;;;;;7.93;3.88;;;;;;;;;;6265352;28;20048;-76
2024/02/11 00:06:49;;;;;;;8.02;4.25;;;;;;;;;;6260936;28;20540;-74
2024/02/11 00:09:52;;;;;;;12.02;4.13;;;;;;;;;;6241404;28;20040;-74
2024/02/11 00:12:57;;;;;;;7.55;3.35;;;;;;;;;;6283218;28;20102;-74
2024/02/11 00:16:00;;;;;;;;;;;;;;;;;;6265759;28;20865;-74
2024/02/11 00:19:02;;;;;;;;;;;;;;;;;;6263944;28;20390;-74
2024/02/11 00:22:05;;;;;;;5.68;2.60;;;;;;;;;;6282222;28;20447;-75
2024/02/11 00:25:09;;;;;;;11.65;3.17;;;;;;;;;;6270607;28;20053;-75
2024/02/11 00:28:11;;;;;;;10.27;3.53;;;;;;;;;;6241176;28;20103;-74
2024/02/11 00:31:13;;;;;;;7.28;4.47;;;;;;;;;;6259225;28;20075;-75
2024/02/11 00:34:16;;;;;;;7.60;3.53;;;;;;;;;;6241649;28;20183;-74
2024/02/11 00:37:18;;;;;;;7.20;2.80;;;;;;;;;;6282092;28;20048;-74
2024/02/11 00:40:23;;;;;;;6.95;3.88;;;;;;;;;;6246118;28;20048;-75
2024/02/11 00:43:26;;;;;;;7.53;3.22;;;;;;;;;;6279536;28;20053;-75
2024/02/11 00:46:29;;;;;;;5.00;2.42;;;;;;;;;;6247921;28;20056;-75
2024/02/11 00:49:33;;;;;;;17.10;4.10;;;;;;;;;;6278878;28;20110;-76
2024/02/11 00:52:41;;;;;;;5.35;2.50;;;;;;;;;;6260315;28;20063;-75
2024/02/11 00:55:43;;;;;;;8.98;3.08;;;;;;;;;;6256843;28;20048;-75
2024/02/11 00:58:46;;;;;;;6.40;3.97;;;;;;;;;;6247844;28;20111;-75
2024/02/11 01:01:48;;;;;;;6.25;3.17;;;;;;;;;;6275976;28;20084;-75
2024/02/11 01:04:51;;;;;;;7.57;3.38;;;;;;;;;;6243906;28;20041;-76
2024/02/11 01:07:54;;;;;;;6.10;3.78;;;;;;;;;;6266361;28;20060;-74
2024/02/11 01:10:56;;;;;;;7.55;3.35;;;;;;;;;;6243952;28;20055;-75
2024/02/11 01:13:59;;;;;;;5.85;2.58;;;;;;;;;;6271335;28;20040;-74
2024/02/11 01:17:03;;;;;;;6.30;2.55;;;;;;;;;;6285024;28;20051;-74
2024/02/11 01:20:09;;;;;;;4.78;3.10;;;;;;;;;;6267326;28;20135;-75
2024/02/11 01:23:11;;;;;;;7.15;2.60;;;;;;;;;;6265444;28;20425;-74
2024/02/11 01:26:14;;;;;;;6.78;2.97;;;;;;;;;;6270861;28;20774;-75
2024/02/11 01:29:17;;;;;;;5.72;2.10;;;;;;;;;;6241596;28;20074;-75
2024/02/11 01:32:23;;;;;;;8.02;2.72;;;;;;;;;;6282476;28;20034;-75
2024/02/11 01:35:28;;;;;;;5.07;2.28;;;;;;;;;;6279417;28;20174;-76
2024/02/11 01:38:31;;;;;;;6.38;2.47;;;;;;;;;;6276479;28;20048;-76
2024/02/11 01:41:33;;;;;;;5.70;2.75;;;;;;;;;;6263633;28;20056;-75
2024/02/11 01:44:36;;;;;;;5.03;1.90;;;;;;;;;;6277424;28;20041;-74
2024/02/11 01:47:38;;;;;;;8.27;2.72;;;;;;;;;;6276756;28;20577;-75
2024/02/11 01:50:41;;;;;;;3.72;2.30;;;;;;;;;;6226432;28;20056;-74
2024/02/11 01:53:48;;;;;;;4.25;1.95;;;;;;;;;;6265057;28;20045;-75
2024/02/11 01:56:51;;;;;;;5.05;2.10;;;;;;;;;;6264720;28;20079;-75
2024/02/11 01:59:54;;;;;;;3.42;1.85;;;;;;;;;;6280734;28;20221;-75
2024/02/11 02:02:56;;;;;;;3.88;2.10;;;;;;;;;;6248940;28;20077;-74
2024/02/11 02:06:00;;;;;;;7.20;3.28;;;;;;;;;;6285676;28;20093;-75
2024/02/11 02:09:03;;;;;;;3.03;1.52;;;;;;;;;;6268111;28;20592;-75
2024/02/11 02:12:06;;;;;;;4.63;2.50;;;;;;;;;;6254766;28;20097;-74
2024/02/11 02:15:09;;;;;;;2.83;1.52;;;;;;;;;;6266672;28;20147;-74
2024/02/11 02:18:12;;;;;;;5.00;1.77;;;;;;;;;;6282724;28;21007;-74
2024/02/11 02:21:18;;;;;;;3.53;2.17;;;;;;;;;;6292298;28;20077;-76
2024/02/11 02:24:20;;;;;;;4.57;1.42;;;;;;;;;;6268725;28;20092;-74
2024/02/11 02:27:25;;;;;;;3.15;2.45;;;;;;;;;;6249501;28;20876;-76
2024/02/11 02:30:33;;;;;;;3.67;1.85;;;;;;;;;;6286756;28;20044;-73
2024/02/11 02:33:36;;;;;;;4.30;2.17;;;;;;;;;;6288262;28;21270;-74
2024/02/11 02:36:40;;;;;;;7.72;2.50;;;;;;;;;;6264295;28;20175;-74
2024/02/11 02:39:42;;;;;;;5.18;1.80;;;;;;;;;;6270418;28;20044;-74
2024/02/11 02:42:44;;;;;;;4.28;2.53;;;;;;;;;;6282645;28;20071;-74
2024/02/11 02:45:47;;;;;;;7.18;2.15;;;;;;;;;;6264406;28;20060;-74
2024/02/11 02:48:50;;;;;;;4.57;2.47;;;;;;;;;;6278504;28;20041;-74
2024/02/11 02:51:52;;;;;;;3.40;1.75;;;;;;;;;;6265608;28;20878;-74
2024/02/11 02:54:55;;;;;;;6.22;2.08;;;;;;;;;;6245142;28;20040;-74
2024/02/11 02:57:57;;;;;;;4.93;2.22;;;;;;;;;;6282965;28;20044;-74
2024/02/11 03:01:01;;;;;;;3.55;1.88;;;;;;;;;;6275133;28;20059;-74
2024/02/11 03:04:04;;;;;;;4.80;2.00;;;;;;;;;;6264618;28;20131;-74
2024/02/11 03:07:06;;;;;;;4.28;1.77;;;;;;;;;;6279289;28;20083;-75
2024/02/11 03:10:14;;;;;;;5.38;1.55;;;;;;;;;;6278167;28;20045;-74
2024/02/11 03:13:16;;;;;;;5.55;2.95;;;;;;;;;;6256023;28;20259;-74
2024/02/11 03:16:18;;;;;;;6.60;3.40;;;;;;;;;;6266485;28;20048;-74
2024/02/11 03:19:20;;;;;;;13.25;4.97;;;;;;;;;;6268043;28;20143;-74
2024/02/11 03:22:23;;;;;;;6.95;3.63;;;;;;;;;;6273050;28;20118;-74
2024/02/11 03:25:27;;;;;;;6.28;4.53;;;;;;;;;;6265995;28;20453;-74
2024/02/11 03:28:30;;;;;;;6.90;1.88;;;;;;;;;;6257446;28;20725;-76
2024/02/11 03:31:34;;;;;;;4.97;2.00;;;;;;;;;;6262145;28;20063;-75
2024/02/11 03:34:36;;;;;;;4.85;2.80;;;;;;;;;;6276956;28;20078;-74
2024/02/11 03:37:39;;;;;;;4.65;2.20;;;;;;;;;;6258103;28;20099;-74
2024/02/11 03:40:41;;;;;;;6.95;1.70;;;;;;;;;;6260592;28;20048;-74
2024/02/11 03:43:43;;;;;;;7.07;2.08;;;;;;;;;;6249016;28;20817;-74
2024/02/11 03:46:46;;;;;;;3.20;1.88;;;;;;;;;;6278482;28;20101;-74
2024/02/11 03:49:50;;;;;;;3.95;2.13;;;;;;;;;;6264948;28;20036;-74
2024/02/11 03:52:52;;;;;;;3.67;1.63;;;;;;;;;;6262334;28;20059;-74
2024/02/11 03:55:54;;;;;;;3.22;1.60;;;;;;;;;;6279660;28;20242;-74
2024/02/11 03:58:58;;;;;;;5.50;3.22;;;;;;;;;;6257006;28;20047;-74
2024/02/11 04:02:03;;;;;;;4.03;1.92;;;;;;;;;;6265480;28;20052;-74
2024/02/11 04:05:05;;;;;;;5.25;2.50;;;;;;;;;;6243911;28;20041;-75
2024/02/11 04:08:08;;;;;;;4.65;1.50;;;;;;;;;;6260568;28;20119;-74
2024/02/11 04:11:10;;;;;;;3.65;1.55;;;;;;;;;;6256631;28;20155;-75
2024/02/11 04:14:15;;;;;;;5.88;2.90;;;;;;;;;;6256091;28;20685;-75
2024/02/11 04:17:20;;;;;;;4.03;2.20;;;;;;;;;;6264098;28;20719;-75
2024/02/11 04:20:29;;;;;;;3.83;2.03;;;;;;;;;;6279201;28;20168;-75
2024/02/11 04:23:35;;;;;;;3.88;2.03;;;;;;;;;;6259197;28;20118;-75
2024/02/11 04:26:40;;;;;;;6.68;2.10;;;;;;;;;;6263636;28;20139;-75
2024/02/11 04:29:44;;;;;;;8.93;3.63;;;;;;;;;;6246888;28;20044;-75
2024/02/11 04:32:47;;;;;;;4.05;2.08;;;;;;;;;;6273491;28;20043;-75
2024/02/11 04:35:50;;;;;;;3.72;1.42;;;;;;;;;;6263647;28;20095;-75
2024/02/11 04:38:52;;;;;;;3.60;2.20;;;;;;;;;;6245929;28;20044;-74
2024/02/11 04:41:55;;;;;;;6.65;1.85;;;;;;;;;;6243561;28;20060;-74
2024/02/11 04:44:58;;;;;;;3.78;1.52;;;;;;;;;;6272462;28;20052;-75
2024/02/11 04:48:03;;;;;;;3.00;1.65;;;;;;;;;;6240415;28;20101;-74
2024/02/11 04:51:07;;;;;;;5.28;1.83;;;;;;;;;;6243253;28;20056;-75
2024/02/11 04:54:09;;;;;;;3.45;1.23;;;;;;;;;;6278464;28;20047;-75
2024/02/11 04:57:13;;;;;;;3.60;2.67;;;;;;;;;;6278544;28;20900;-75
2024/02/11 05:00:26;;;;;;;4.82;2.47;;;;;;;;;;6241875;28;20142;-75
2024/02/11 05:03:28;;;;;;;3.65;1.58;;;;;;;;;;6259997;28;20052;-75
2024/02/11 05:06:31;;;;;;;5.35;1.95;;;;;;;;;;6260034;28;20040;-75
2024/02/11 05:09:37;;;;;;;4.55;1.92;;;;;;;;;;6240152;28;20045;-75
2024/02/11 05:12:39;;;;;;;;;;;;;;;;;;6229912;28;20489;-75
2024/02/11 05:15:42;;;;;;;4.22;2.45;;;;;;;;;;6281120;28;20302;-75
2024/02/11 05:18:44;;;;;;;5.30;2.15;;;;;;;;;;6247406;28;20053;-74
2024/02/11 05:21:48;;;;;;;5.10;2.00;;;;;;;;;;6262861;28;20466;-74
2024/02/11 05:24:50;;;;;;;3.90;1.75;;;;;;;;;;6278526;28;20041;-75
2024/02/11 05:28:01;;;;;;;4.65;1.50;;;;;;;;;;6255103;28;20044;-75
2024/02/11 05:31:04;;;;;;;4.45;2.00;;;;;;;;;;6277121;28;20055;-74
2024/02/11 05:34:07;;;;;;;4.90;3.75;;;;;;;;;;6259492;28;20037;-75
2024/02/11 05:37:09;;;;;;;4.85;2.15;;;;;;;;;;6258128;28;20044;-76
2024/02/11 05:40:12;;;;;;;5.90;3.75;;;;;;;;;;6260341;28;20721;-74
2024/02/11 05:43:16;;;;;;;7.22;3.28;;;;;;;;;;6243500;28;20106;-75
2024/02/11 05:46:18;;;;;;;8.25;6.30;;;;;;;;;;6276291;28;20044;-75
2024/02/11 05:49:20;;;;;;;3.92;1.88;;;;;;;;;;6278777;28;20136;-75
2024/02/11 05:52:22;;;;;;;3.97;1.60;;;;;;;;;;6233899;28;20147;-75
2024/02/11 05:55:26;;;;;;;7.05;2.83;;;;;;;;;;6274605;28;20052;-75
2024/02/11 05:58:28;;;;;;;5.05;2.13;;;;;;;;;;6248950;28;20063;-75
2024/02/11 06:01:31;;;;;;;4.32;2.28;;;;;;;;;;6281184;28;20167;-75
2024/02/11 06:04:34;;;;;;;3.60;1.70;;;;;;;;;;6263354;28;20803;-74
2024/02/11 06:07:37;;;;;;;4.22;2.00;;;;;;;;;;6283877;28;20643;-75
2024/02/11 06:10:42;;;;;;;19.10;6.13;;;;;;;;;;6259489;28;20117;-75
2024/02/11 06:13:44;;;;;;;6.30;3.25;;;;;;;;;;6245360;28;20584;-75
2024/02/11 06:16:47;;;;;;;6.93;2.35;;;;;;;;;;6259589;28;20049;-74
2024/02/11 06:19:52;;;;;;;10.43;2.40;;;;;;;;;;6258685;28;20045;-75
2024/02/11 06:22:54;;;;;;;7.32;2.88;;;;;;;;;;6265152;28;20873;-74
2024/02/11 06:26:02;;;;;;;6.50;2.40;;;;;;;;;;6265370;28;20037;-75
2024/02/11 06:29:06;;;;;;;5.75;2.63;;;;;;;;;;6230784;28;20101;-75
2024/02/11 06:32:09;;;;;;;3.80;2.20;;;;;;;;;;6255266;28;20037;-76
2024/02/11 06:35:14;;;;;;;4.15;1.90;;;;;;;;;;6263943;28;20174;-74
2024/02/11 06:38:17;;;;;;;5.78;2.53;;;;;;;;;;6276974;28;20040;-74
2024/02/11 06:41:20;;;;;;;6.25;2.17;;;;;;;;;;6281334;28;20044;-74
2024/02/11 06:44:26;;;;;;;5.70;2.15;;;;;;;;;;6262443;28;20199;-74
2024/02/11 06:47:28;;;;;;;5.35;2.50;;;;;;;;;;6280952;28;20051;-74
2024/02/11 06:50:30;;;;;;;5.82;1.80;;;;;;;;;;6244187;28;20146;-72
2024/02/11 06:53:33;;;;;;;12.10;4.03;;;;;;;;;;6244392;28;21041;-72
2024/02/11 06:56:37;;;;;;;6.70;3.15;;;;;;;;;;6277910;28;20366;-73
2024/02/11 06:59:40;;;;;;;7.10;2.45;;;;;;;;;;6258324;28;20062;-73
2024/02/11 07:02:47;;;;;;;9.40;2.90;;;;;;;;;;6275307;28;20057;-74
2024/02/11 07:05:50;;;;;;;4.72;2.20;;;;;;;;;;6263103;28;20040;-74
2024/02/11 07:08:52;;;;;;;11.60;3.50;;;;;;;;;;6252418;28;20040;-75
2024/02/11 07:11:55;;;;;;;15.02;8.43;;;;;;;;;;6277137;28;20041;-73
2024/02/11 07:14:57;;;;;;;4.53;2.40;;;;;;;;;;6228212;28;20059;-74
2024/02/11 07:18:00;;;;;;;5.35;1.73;;;;;;;;;;6269673;28;20083;-73
2024/02/11 07:21:03;;;;;;;4.18;1.90;;;;;;;;;;6257541;28;20053;-74
2024/02/11 07:24:06;;;;;;;6.32;2.35;;;;;;;;;;6263950;28;20090;-74
2024/02/11 07:27:14;;;;;;;4.35;1.98;;;;;;;;;;6260853;28;20052;-74
2024/02/11 07:30:17;;;;;;;6.63;1.85;;;;;;;;;;6258208;28;21016;-74
2024/02/11 07:33:20;;;;;;;5.78;1.70;;;;;;;;;;6279152;28;20052;-74
2024/02/11 07:36:26;;;;;;;4.85;1.98;;;;;;;;;;6276873;28;20094;-74
2024/02/11 07:39:29;;;;;;;5.40;2.40;;;;;;;;;;6278271;28;20056;-74
2024/02/11 07:42:32;;;;;;;7.45;2.30;;;;;;;;;;6280208;28;20059;-74
2024/02/11 07:45:41;;;;;;;6.57;3.00;;;;;;;;;;6262194;28;20051;-74
2024/02/11 07:48:45;;;;;;;7.18;2.05;;;;;;;;;;6246488;28;20075;-74
2024/02/11 07:51:48;;;;;;;6.18;2.58;;;;;;;;;;6262535;28;20079;-75
2024/02/11 07:54:52;;;;;;;9.02;1.88;;;;;;;;;;6278728;28;20049;-76
2024/02/11 07:57:55;;;;;;;5.75;1.98;;;;;;;;;;6261756;28;20052;-74
2024/02/11 08:00:57;;;;;;;7.35;2.97;;;;;;;;;;6264238;28;20059;-75
2024/02/11 08:04:00;;;;;;;6.45;2.28;;;;;;;;;;6245781;28;20647;-75
2024/02/11 08:07:02;;;;;;;8.80;2.17;;;;;;;;;;6279963;28;20829;-75
2024/02/11 08:10:07;;;;;;;16.88;6.93;;;;;;;;;;6257452;28;20044;-75
2024/02/11 08:13:10;;;;;;;18.38;9.57;;;;;;;;;;6226907;28;20044;-74
2024/02/11 08:16:12;;;;;;;80.57;40.40;;;;;;;;;;6263643;28;20177;-75
2024/02/11 08:19:15;;;;;;;7.90;4.32;;;;;;;;;;6272451;28;20044;-75
2024/02/11 08:22:18;;;;;;;11.82;5.05;;;;;;;;;;6249921;28;20045;-74
2024/02/11 08:25:21;;;;;;;7.03;2.33;;;;;;;;;;6241643;28;20047;-73
2024/02/11 08:28:23;;;;;;;5.82;2.78;;;;;;;;;;6267431;28;20036;-74
2024/02/11 08:31:25;;;;;;;2.63;1.52;;;;;;;;;;6245006;28;20041;-75
2024/02/11 08:34:28;;;;;;;19.73;7.20;;;;;;;;;;6250244;28;20041;-74
2024/02/11 08:37:30;;;;;;;5.72;1.30;;;;;;;;;;6271300;28;20052;-75
2024/02/11 08:40:32;;;;;;;5.18;2.20;;;;;;;;;;6242994;28;20588;-74
2024/02/11 08:43:34;;;;;;;6.40;3.22;;;;;;;;;;6263843;28;20643;-74
2024/02/11 08:46:36;;;;;;;5.78;3.20;;;;;;;;;;6247170;28;20559;-75
2024/02/11 08:49:40;;;;;;;11.65;3.53;;;;;;;;;;6281215;28;20533;-75
2024/02/11 08:52:43;;;;;;;6.78;3.40;;;;;;;;;;6247208;28;20044;-77
2024/02/11 08:55:48;;;;;;;8.88;4.32;;;;;;;;;;6276861;28;20045;-76
2024/02/11 08:58:50;;;;;;;7.25;1.98;;;;;;;;;;6240924;28;20174;-75
2024/02/11 09:01:53;;;;;;;7.63;2.40;;;;;;;;;;6282929;28;20054;-74
2024/02/11 09:04:55;;;;;;;6.75;2.90;;;;;;;;;;6262014;28;20190;-78
2024/02/11 09:07:57;;;;;;;4.85;2.72;;;;;;;;;;6251394;28;20091;-75
2024/02/11 09:11:03;;;;;;;6.13;2.58;;;;;;;;;;6265163;28;20060;-75
2024/02/11 09:14:07;;;;;;;5.53;2.72;;;;;;;;;;6283163;28;20044;-75
2024/02/11 09:17:11;;;;;;;5.40;3.15;;;;;;;;;;6259731;28;20155;-75
2024/02/11 09:20:13;;;;;;;4.57;1.75;;;;;;;;;;6252642;28;20043;-75
2024/02/11 09:23:17;;;;;;;5.65;3.25;;;;;;;;;;6275313;28;20041;-74
2024/02/11 09:26:20;;;;;;;3.63;2.08;;;;;;;;;;6261926;28;20044;-77
2024/02/11 09:29:23;;;;;;;4.75;2.03;;;;;;;;;;6250666;28;20466;-76
2024/02/11 09:32:25;;;;;;;9.10;2.38;;;;;;;;;;6268014;28;20126;-77
2024/02/11 09:35:27;;;;;;;5.00;2.20;;;;;;;;;;6245875;28;20044;-75
2024/02/11 09:38:30;;;;;;;4.78;2.28;;;;;;;;;;6282062;28;20167;-74
2024/02/11 09:41:34;;;;;;;5.85;1.85;;;;;;;;;;6284542;28;20696;-77
2024/02/11 09:44:38;;;;;;;6.68;2.20;;;;;;;;;;6281782;28;20056;-77
2024/02/11 09:47:41;;;;;;;7.15;2.85;;;;;;;;;;6263814;28;20049;-73
2024/02/11 09:50:44;;;;;;;5.03;1.50;;;;;;;;;;6283594;28;20055;-75
2024/02/11 09:53:48;;;;;;;7.03;1.67;;;;;;;;;;6255006;28;20909;-75
2024/02/11 09:56:50;;;;;;;8.13;1.73;;;;;;;;;;6268354;28;20091;-74
2024/02/11 09:59:53;;;;;;;11.25;2.72;;;;;;;;;;6281040;28;20514;-76
2024/02/11 10:02:58;;;;;;;7.57;1.27;;;;;;;;;;6255043;28;20296;-75
2024/02/11 10:06:02;;;;;;;11.75;2.38;;;;;;;;;;6268909;28;20048;-74
2024/02/11 10:09:05;;;;;;;4.57;1.98;;;;;;;;;;6254124;28;20048;-73
2024/02/11 10:12:07;;;;;;;6.32;1.77;;;;;;;;;;6270120;28;20040;-76
2024/02/11 10:15:16;;;;;;;6.47;1.88;;;;;;;;;;6251106;28;20040;-74
2024/02/11 10:18:20;;;;;;;9.27;2.58;;;;;;;;;;6265344;28;20052;-74
2024/02/11 10:21:23;;;;;;;9.13;2.15;;;;;;;;;;6284616;28;20047;-74
2024/02/11 10:24:26;;;;;;;3.97;1.85;;;;;;;;;;6266511;28;20611;-74
2024/02/11 10:27:30;;;;;;;6.10;2.10;;;;;;;;;;6265254;28;20055;-74
2024/02/11 10:30:34;;;;;;;4.95;2.05;;;;;;;;;;6245829;28;20147;-73
2024/02/11 10:33:37;;;;;;;3.05;1.67;;;;;;;;;;6264050;28;20131;-74
2024/02/11 10:36:39;;;;;;;6.15;1.67;;;;;;;;;;6255755;28;20037;-76
2024/02/11 10:39:42;;;;;;;5.32;1.08;;;;;;;;;;6287232;28;20036;-75
2024/02/11 10:42:45;;;;;;;5.05;1.30;;;;;;;;;;6278206;28;20049;-74
2024/02/11 10:45:47;;;;;;;3.97;1.08;;;;;;;;;;6245886;28;20044;-75
2024/02/11 10:48:50;;;;;;;6.00;2.05;;;;;;;;;;6273919;28;20043;-74
2024/02/11 10:52:02;;;;;;;4.72;1.02;;;;;;;;;;6250890;28;20049;-74
2024/02/11 10:55:06;;;;;;;5.05;2.28;;;;;;;;;;6259800;28;20044;-74
2024/02/11 10:58:16;;;;;;;5.22;1.63;;;;;;;;;;6265330;28;20556;-75
2024/02/11 11:01:20;;;;;;;6.65;1.60;;;;;;;;;;6262977;28;20044;-76
2024/02/11 11:04:24;;;;;;;9.32;1.98;;;;;;;;;;6248222;28;20060;-79
2024/02/11 11:07:28;;;;;;;7.00;1.85;;;;;;;;;;6265232;28;20195;-75
2024/02/11 11:10:37;;;;;;;3.97;1.55;;;;;;;;;;6266205;28;20100;-77
2024/02/11 11:13:40;;;;;;;3.58;1.30;;;;;;;;;;6257626;28;20045;-76
2024/02/11 11:16:46;;;;;;;5.53;1.70;;;;;;;;;;6269392;28;20475;-76
2024/02/11 11:19:50;;;;;;;5.88;1.58;;;;;;;;;;6286354;28;20506;-77
2024/02/11 11:22:57;;;;;;;5.95;1.58;;;;;;;;;;6278510;28;20052;-75
2024/02/11 11:25:59;;;;;;;6.10;1.60;;;;;;;;;;6296294;28;20029;-78
2024/02/11 11:29:03;;;;;;;3.88;2.03;;;;;;;;;;6302893;28;20829;-76
2024/02/11 11:32:09;;;;;;;4.13;1.45;;;;;;;;;;6264648;28;20048;-76
2024/02/11 11:35:13;;;;;;;3.65;1.25;;;;;;;;;;6248801;28;20047;-76
2024/02/11 11:38:19;;;;;;;11.10;2.80;;;;;;;;;;6265860;28;20098;-75
2024/02/11 11:41:24;;;;;;;4.30;1.63;;;;;;;;;;6230322;28;20052;-75
2024/02/11 11:44:27;;;;;;;7.05;2.47;;;;;;;;;;6245119;28;20044;-75
2024/02/11 11:48:02;;;;;;;9.35;1.95;;;;;;;;;;6263751;28;20048;-76
2024/02/11 11:51:07;;;;;;;4.47;1.73;;;;;;;;;;6271813;28;20072;-77
2024/02/11 11:54:10;;;;;;;2.78;1.55;;;;;;;;;;6259297;28;20076;-76
2024/02/11 11:57:13;;;;;;;3.33;2.28;;;;;;;;;;6258639;28;20125;-76
2024/02/11 12:00:17;;;;;;;5.18;1.60;;;;;;;;;;6286098;28;20048;-76
2024/02/11 12:03:19;;;;;;;4.95;1.48;;;;;;;;;;6289410;28;20174;-76
2024/02/11 12:06:22;;;;;;;3.35;1.05;;;;;;;;;;6257794;28;20044;-78
2024/02/11 12:09:26;;;;;;;4.88;2.42;;;;;;;;;;6269430;28;20060;-77
2024/02/11 12:12:28;;;;;;;6.22;2.90;;;;;;;;;;6245633;28;20447;-76
2024/02/11 12:15:30;;;;;;;6.38;2.30;;;;;;;;;;6233643;28;20037;-76
2024/02/11 12:18:37;;;;;;;5.20;1.50;;;;;;;;;;6275912;28;20044;-76
2024/02/11 12:21:42;;;;;;;5.15;2.03;;;;;;;;;;6272470;28;20113;-76
2024/02/11 12:24:46;;;;;;;4.38;2.47;;;;;;;;;;6263349;28;20048;-77
2024/02/11 12:27:52;;;;;;;4.43;2.00;;;;;;;;;;6261400;28;20036;-76
2024/02/11 12:31:09;;;;;;;4.07;2.28;;;;;;;;;;6271869;28;20056;-77
2024/02/11 12:34:13;;;;;;;3.38;1.65;;;;;;;;;;6241284;28;20079;-78
2024/02/11 12:37:19;;;;;;;7.38;2.58;;;;;;;;;;6266986;28;20036;-77
2024/02/11 12:40:23;;;;;;;6.10;2.65;;;;;;;;;;6281369;28;20105;-78
2024/02/11 12:43:25;;;;;;;4.20;2.65;;;;;;;;;;6249238;28;20045;-77
2024/02/11 12:46:29;;;;;;;7.05;4.55;;;;;;;;;;6242238;28;20048;-78
2024/02/11 12:49:31;;;;;;;3.58;1.48;;;;;;;;;;6258236;28;20063;-76
2024/02/11 12:52:33;;;;;;;4.07;3.72;;;;;;;;;;6283443;28;20192;-78
2024/02/11 12:55:35;;;;;;;6.78;1.58;;;;;;;;;;6245703;28;20068;-75
2024/02/11 12:58:39;;;;;;;4.25;1.48;;;;;;;;;;6243039;28;20071;-75
2024/02/11 13:01:41;;;;;;;5.22;2.17;;;;;;;;;;6270735;28;20436;-75
2024/02/11 13:04:45;;;;;;;4.18;2.08;;;;;;;;;;6268074;28;20665;-76
2024/02/11 13:07:48;;;;;;;3.60;1.98;;;;;;;;;;6253788;28;20050;-77
2024/02/11 13:10:55;;;;;;;5.22;1.30;;;;;;;;;;6278302;28;20057;-77
2024/02/11 13:14:00;;;;;;;;;;;;;;;;;;6266708;28;20056;-77
2024/02/11 13:17:03;;;;;;;3.70;1.73;;;;;;;;;;6288459;28;20239;-77
2024/02/11 13:20:08;;;;;;;2.70;1.23;;;;;;;;;;6282612;28;20040;-77
2024/02/11 13:23:13;;;;;;;4.25;1.35;;;;;;;;;;6282904;28;20861;-78
2024/02/11 13:26:15;;;;;;;5.43;1.42;;;;;;;;;;6251401;28;20104;-77
2024/02/11 13:29:20;;;;;;;5.38;1.58;;;;;;;;;;6287964;28;20051;-80
2024/02/11 13:32:27;;;;;;;4.93;1.00;;;;;;;;;;6268861;28;20051;-78
2024/02/11 13:35:34;;;;;;;4.68;2.03;;;;;;;;;;6268075;28;20041;-77
2024/02/11 13:38:36;;;;;;;6.28;1.65;;;;;;;;;;6252469;28;20055;-78
2024/02/11 13:41:40;;;;;;;4.07;2.22;;;;;;;;;;6259957;28;20059;-77
2024/02/11 13:44:43;;;;;;;2.72;1.10;;;;;;;;;;6256817;28;20479;-79
2024/02/11 13:47:48;;;;;;;5.07;2.42;;;;;;;;;;6271298;28;20060;-79
2024/02/11 13:50:53;;;;;;;3.78;1.73;;;;;;;;;;6264548;28;20167;-78
2024/02/11 13:53:56;;;;;;;6.03;2.00;;;;;;;;;;6265236;28;20048;-84
2024/02/11 13:56:59;;;;;;;9.07;2.00;;;;;;;;;;6267142;28;20843;-79
2024/02/11 14:00:04;;;;;;;7.15;1.70;;;;;;;;;;6292260;28;20342;-80
2024/02/11 14:03:13;;;;;;;5.90;1.83;;;;;;;;;;6265928;28;20229;-78
2024/02/11 14:06:16;;;;;;;5.05;1.85;;;;;;;;;;6269154;28;20045;-79
2024/02/11 14:09:20;;;;;;;3.45;1.10;;;;;;;;;;6255320;28;20048;-77
2024/02/11 14:12:22;;;;;;;2.72;1.42;;;;;;;;;;6236181;28;20508;-79
2024/02/11 14:15:24;;;;;;;4.20;1.83;;;;;;;;;;6258211;28;20064;-78
2024/02/11 14:18:27;;;;;;;10.23;1.27;;;;;;;;;;6268008;28;20067;-79
2024/02/11 14:21:31;;;;;;;4.70;1.67;;;;;;;;;;6285789;28;20049;-79
2024/02/11 14:24:33;;;;;;;6.28;1.50;;;;;;;;;;6271033;28;20047;-79
2024/02/11 14:27:37;;;;;;;117.90;49.13;;;;;;;;;;6253142;28;20173;-79
2024/02/11 14:30:42;;;;;;;4.78;1.40;;;;;;;;;;6286898;28;20043;-79
2024/02/11 14:33:47;;;;;;;11.82;5.38;;;;;;;;;;6256722;28;20056;-78
2024/02/11 14:36:54;;;;;;;5.93;2.10;;;;;;;;;;6254018;28;20090;-78
2024/02/11 14:39:56;;;;;;;6.40;1.90;;;;;;;;;;6247670;28;20118;-79
2024/02/11 14:43:02;;;;;;;3.13;1.73;;;;;;;;;;6266948;28;20040;-79
2024/02/11 14:46:05;;;;;;;3.97;1.63;;;;;;;;;;6289673;28;20049;-80
2024/02/11 14:49:09;;;;;;;6.47;1.48;;;;;;;;;;6254233;28;20049;-80
2024/02/11 14:52:12;;;;;;;4.22;0.93;;;;;;;;;;6286763;28;20044;-78
2024/02/11 14:55:17;;;;;;;4.22;0.88;;;;;;;;;;6249632;28;20889;-78
2024/02/11 14:58:23;;;;;;;1.95;0.57;;;;;;;;;;6232336;28;20068;-80
2024/02/11 15:01:25;;;;;;;2.95;1.15;;;;;;;;;;6270151;28;20055;-79
2024/02/11 15:04:29;;;;;;;4.90;1.27;;;;;;;;;;6217552;28;20382;-78
2024/02/11 15:07:32;;;;;;;4.45;1.33;;;;;;;;;;6272770;28;20433;-79
2024/02/11 15:10:34;;;;;;;3.80;1.08;;;;;;;;;;6271835;28;20049;-78
2024/02/11 15:13:37;;;;;;;7.00;1.23;;;;;;;;;;6295014;28;20056;-79
2024/02/11 15:16:41;;;;;;;3.53;1.17;;;;;;;;;;6268265;28;20072;-79
2024/02/11 15:19:46;;;;;;;3.53;1.50;;;;;;;;;;6275951;28;20493;-79
2024/02/11 15:22:49;;;;;;;2.15;1.70;;;;;;;;;;6258693;28;20059;-78
2024/02/11 15:25:52;;;;;;;2.88;1.83;;;;;;;;;;6259291;28;20048;-79
2024/02/11 15:28:56;;;;;;;3.63;1.40;;;;;;;;;;6287194;28;20032;-78
2024/02/11 15:31:58;;;;;;;6.10;2.70;;;;;;;;;;6283216;28;20045;-79
2024/02/11 15:35:00;;;;;;;5.20;2.67;;;;;;;;;;6257831;28;20037;-79
2024/02/11 15:38:03;;;;;;;3.80;2.22;;;;;;;;;;6283681;28;20052;-80
2024/02/11 15:41:05;;;;;;;4.05;2.30;;;;;;;;;;6277201;28;20505;-78
2024/02/11 15:44:09;;;;;;;4.40;1.25;;;;;;;;;;6274177;28;20055;-79
2024/02/11 15:47:13;;;;;;;3.38;1.20;;;;;;;;;;6274292;28;20044;-78
2024/02/11 15:50:16;;;;;;;2.63;1.13;;;;;;;;;;6284748;28;20048;-80
2024/02/11 15:53:19;;;;;;;5.32;2.17;;;;;;;;;;6271339;28;20464;-80
2024/02/11 15:56:22;;;;;;;3.35;2.05;;;;;;;;;;6266256;28;20074;-78
2024/02/11 15:59:27;;;;;;;5.78;2.38;;;;;;;;;;6245314;28;20067;-77
2024/02/11 16:02:40;;;;;;;4.80;0.90;;;;;;;;;;6281136;28;20105;-79
2024/02/11 16:05:43;;;;;;;6.53;1.48;;;;;;;;;;6257348;28;20855;-76
2024/02/11 16:08:46;;;;;;;4.88;1.77;;;;;;;;;;6280723;28;20048;-75
2024/02/11 16:11:53;;;;;;;3.35;1.58;;;;;;;;;;6267189;28;20044;-75
2024/02/11 16:14:56;;;;;;;4.07;1.63;;;;;;;;;;6260084;28;20780;-76
2024/02/11 16:18:01;;;;;;;2.97;1.17;;;;;;;;;;6248293;28;20052;-82
2024/02/11 16:21:08;;;;;;;5.20;1.52;;;;;;;;;;6275069;28;20573;-81
2024/02/11 16:24:16;;;;;;;5.55;1.02;;;;;;;;;;6284532;28;20063;-80
2024/02/11 16:27:21;;;;;;;4.25;1.52;;;;;;;;;;6253793;28;20052;-80
2024/02/11 16:30:24;;;;;;;3.05;1.13;;;;;;;;;;6250782;28;20044;-79
2024/02/11 16:33:33;;;;;;;4.18;1.58;;;;;;;;;;6252002;28;20068;-80
2024/02/11 16:36:37;;;;;;;2.58;1.60;;;;;;;;;;6271219;28;20529;-79
2024/02/11 16:39:43;;;;;;;9.98;8.52;;;;;;;;;;6273134;28;20513;-77
2024/02/11 16:42:46;;;;;;;7.97;5.55;;;;;;;;;;6268537;28;20052;-78
2024/02/11 16:45:50;;;;;;;9.57;8.30;;;;;;;;;;6259350;28;20158;-78
2024/02/11 16:48:54;;;;;;;5.35;3.58;;;;;;;;;;6253923;28;20044;-79
2024/02/11 16:51:58;;;;;;;4.28;2.85;;;;;;;;;;6262675;28;20127;-77
2024/02/11 16:55:01;;;;;;;3.30;2.13;;;;;;;;;;6264832;28;20041;-79
2024/02/11 16:58:04;;;;;;;3.20;2.20;;;;;;;;;;6260865;28;20064;-76
2024/02/11 17:01:07;;;;;;;3.05;1.30;;;;;;;;;;6277811;28;20083;-76
2024/02/11 17:04:10;;;;;;;2.60;1.02;;;;;;;;;;6250797;28;20040;-75
2024/02/11 17:07:12;;;;;;;2.78;1.13;;;;;;;;;;6247129;28;20055;-78
2024/02/11 17:10:17;;;;;;;2.90;1.27;;;;;;;;;;6261916;28;20048;-75
2024/02/11 17:13:20;;;;;;;5.88;2.92;;;;;;;;;;6262620;28;20438;-77
2024/02/11 17:16:22;;;;;;;2.47;1.40;;;;;;;;;;6283529;28;20570;-76
2024/02/11 17:19:25;;;;;;;2.28;1.48;;;;;;;;;;6237661;28;20044;-76
2024/02/11 17:22:28;;;;;;;1.77;1.20;;;;;;;;;;6280039;28;20059;-75
2024/02/11 17:25:37;;;;;;;3.95;1.17;;;;;;;;;;6261819;28;20045;-77
2024/02/11 17:28:43;;;;;;;3.42;1.52;;;;;;;;;;6281093;28;20087;-77
2024/02/11 17:31:46;;;;;;;1.95;1.20;;;;;;;;;;6267499;28;20278;-76
2024/02/11 17:34:48;;;;;;;3.88;1.20;;;;;;;;;;6248073;28;20048;-76
2024/02/11 17:37:51;;;;;;;3.58;1.27;;;;;;;;;;6249761;28;20069;-77
2024/02/11 17:40:53;;;;;;;3.60;1.15;;;;;;;;;;6267871;28;20049;-75
2024/02/11 17:43:57;;;;;;;2.83;1.48;;;;;;;;;;6258883;28;20072;-77
2024/02/11 17:47:01;;;;;;;2.90;1.83;;;;;;;;;;6264845;28;20040;-76
2024/02/11 17:50:11;;;;;;;3.53;2.05;;;;;;;;;;6267351;28;20105;-76
2024/02/11 17:53:14;;;;;;;4.10;2.33;;;;;;;;;;6270030;28;20049;-76
2024/02/11 17:56:17;;;;;;;3.45;1.02;;;;;;;;;;6287576;28;20040;-75
2024/02/11 17:59:22;;;;;;;4.70;2.13;;;;;;;;;;6287329;28;20147;-74
2024/02/11 18:02:27;;;;;;;5.47;1.75;;;;;;;;;;6284016;28;20083;-75
2024/02/11 18:05:32;;;;;;;6.80;1.67;;;;;;;;;;6284689;28;20052;-74
2024/02/11 18:08:35;;;;;;;5.60;1.50;;;;;;;;;;6267157;28;20152;-73
2024/02/11 18:11:39;;;;;;;6.25;1.67;;;;;;;;;;6281483;28;20225;-72
2024/02/11 18:14:43;;;;;;;6.57;1.77;;;;;;;;;;6260969;28;20044;-73
2024/02/11 18:17:46;;;;;;;13.23;7.03;;;;;;;;;;6278545;28;20037;-73
2024/02/11 18:20:50;;;;;;;9.88;3.83;;;;;;;;;;6257557;28;20169;-74